Time;durP1;ratioP1;P1;durP2;ratioP2;P2;SDS_P1;SDS_P2;PMS_P1;PMS_P2;Temp;Humidity;BMP_temperature;BMP_pressure;BME280_temperature;BME280_humidity;BME280_pressure;Samples;Min_cycle;Max_cycle;Signal;HPM_P1;HPM_P2
2023/09/23 00:00:07;;;;;;;;;;;;;;;21.89;57.98;100195.44;5029620;28;2418;-70
2023/09/23 00:02:40;;;;;;;;;;;;;;;21.88;57.83;100201.88;5029574;28;6205;-70
2023/09/23 00:05:11;;;;;;;;;;;;;;;21.89;57.77;100209.13;5026197;28;2607;-70
2023/09/23 00:07:39;;;;;;;;;;;;;;;21.87;57.48;100217.69;5033294;28;1792;-69
2023/09/23 00:10:08;;;;;;;;;;;;;;;21.87;57.74;100220.56;5029330;28;2438;-70
2023/09/23 00:12:35;;;;;;;;;;;;;;;21.87;57.78;100223.47;5032689;28;2320;-78
2023/09/23 00:15:03;;;;;;;;;;;;;;;21.84;57.75;100228.44;5033095;28;2496;-70
2023/09/23 00:17:29;;;;;;;;;;;;;;;21.85;57.77;100235.69;5046383;28;2468;-73
2023/09/23 00:19:56;;;;;;;;;;;;;;;21.82;57.73;100233.41;5030946;28;2398;-72
2023/09/23 00:22:23;;;;;;;;;;;;;;;21.82;57.72;100239.16;5030389;28;2485;-72
2023/09/23 00:24:50;;;;;;;;;;;;;;;21.82;57.65;100244.94;5031063;28;1961;-72
2023/09/23 00:27:17;;;;;;;;;;;;;;;21.81;57.68;100238.44;5030595;28;2431;-72
2023/09/23 00:29:44;;;;;;;;;;;;;;;21.83;57.55;100240.63;5025766;28;2490;-72
2023/09/23 00:32:14;;;;;;;;;;;;;;;21.80;57.54;100239.81;5026615;28;7458;-73
2023/09/23 00:34:41;;;;;;;;;;;;;;;21.82;57.37;100239.16;5027528;28;2567;-72
2023/09/23 00:37:09;;;;;;;;;;;;;;;21.80;57.45;100236.22;5027738;28;2331;-73
2023/09/23 00:39:42;;;;;;;;;;;;;;;21.80;57.55;100236.22;5026944;28;2460;-72
2023/09/23 00:42:10;;;;;;;;;;;;;;;21.81;57.34;100237.69;5046024;28;1764;-73
2023/09/23 00:44:39;;;;;;;;;;;;;;;21.80;57.60;100236.22;5026118;28;2551;-72
2023/09/23 00:47:06;;;;;;;;;;;;;;;21.80;57.28;100236.22;5031750;28;2634;-73
2023/09/23 00:49:34;;;;;;;;;;;;;;;21.79;57.45;100229.00;5030566;28;2048;-72
2023/09/23 00:52:02;;;;;;;;;;;;;;;21.79;57.59;100223.97;5026149;28;1705;-72
2023/09/23 00:54:30;;;;;;;;;;;;;;;21.79;57.26;100226.84;5031200;28;2475;-72
2023/09/23 00:57:00;;;;;;;;;;;;;;;21.79;57.26;100217.47;5030674;28;2424;-73
2023/09/23 00:59:27;;;;;;;;;;;;;;;21.78;57.30;100215.97;5034925;28;2517;-72
2023/09/23 01:01:56;;;;;;;;;;;;;;;21.79;57.45;100200.19;5032184;28;6055;-72
2023/09/23 01:04:24;;;;;;;;;;;;;;;21.78;57.52;100207.34;5030659;28;2542;-72
2023/09/23 01:06:50;;;;;;;;;;;;;;;21.77;57.48;100206.59;5030659;28;2311;-73
2023/09/23 01:09:20;;;;;;;;;;;;;;;21.77;57.11;100203.72;5033666;28;2493;-73
2023/09/23 01:11:50;;;;;;;;;;;;;;;21.77;57.17;100209.50;5031089;28;2483;-72
2023/09/23 01:14:21;;;;;;;;;;;;;;;21.78;57.05;100205.19;5031812;28;2465;-73
2023/09/23 01:16:48;;;;;;;;;;;;;;;21.76;57.47;100213.75;5031698;28;2318;-73
2023/09/23 01:19:18;;;;;;;;;;;;;;;21.77;57.07;100208.75;5028810;28;2424;-73
2023/09/23 01:21:49;;;;;;;;;;;;;;;21.76;57.21;100205.13;5032820;28;2495;-73
2023/09/23 01:24:16;;;;;;;;;;;;;;;21.75;57.04;100206.53;5027858;28;2559;-72
2023/09/23 01:26:43;;;;;;;;;;;;;;;21.74;57.17;100194.28;5014132;28;2334;-72
2023/09/23 01:29:11;;;;;;;;;;;;;;;21.73;57.21;100206.47;5028864;28;2441;-72
2023/09/23 01:31:39;;;;;;;;;;;;;;;21.73;56.94;100203.59;5027766;28;6173;-73
2023/09/23 01:34:06;;;;;;;;;;;;;;;21.72;57.19;100214.38;5029312;28;2516;-72
2023/09/23 01:36:33;;;;;;;;;;;;;;;21.72;56.90;100216.53;5030427;28;2536;-73
2023/09/23 01:39:00;;;;;;;;;;;;;;;21.71;56.94;100212.16;5028818;28;2467;-73
2023/09/23 01:41:26;;;;;;;;;;;;;;;21.71;57.02;100218.66;5034730;28;2532;-73
2023/09/23 01:43:54;;;;;;;;;;;;;;;21.72;57.22;100225.91;5030046;28;2607;-73
2023/09/23 01:46:20;;;;;;;;;;;;;;;21.71;56.85;100224.44;5029044;28;2482;-73
2023/09/23 01:48:47;;;;;;;;;;;;;;;21.71;57.22;100229.47;5027204;28;2440;-72
2023/09/23 01:51:17;;;;;;;;;;;;;;;21.69;56.94;100230.16;5031790;28;1703;-73
2023/09/23 01:53:43;;;;;;;;;;;;;;;21.69;56.95;100226.50;5030349;28;2471;-73
2023/09/23 01:56:11;;;;;;;;;;;;;;;21.66;56.90;100231.47;5028098;28;2480;-73
2023/09/23 01:58:38;;;;;;;;;;;;;;;21.70;57.20;100228.00;5028487;28;2701;-73
2023/09/23 02:01:04;;;;;;;;;;;;;;;21.70;56.82;100234.50;5028059;28;6170;-73
2023/09/23 02:03:31;;;;;;;;;;;;;;;21.72;56.85;100234.56;5031861;28;2174;-73
2023/09/23 02:05:57;;;;;;;;;;;;;;;21.73;56.79;100232.41;5031419;28;2396;-73
2023/09/23 02:08:24;;;;;;;;;;;;;;;21.74;56.77;100240.38;5024727;28;3013;-73
2023/09/23 02:10:51;;;;;;;;;;;;;;;21.74;56.82;100239.66;5029527;28;2364;-72
2023/09/23 02:13:18;;;;;;;;;;;;;;;21.73;56.65;100238.16;5031360;28;2537;-73
2023/09/23 02:15:45;;;;;;;;;;;;;;;21.71;56.91;100241.72;5027568;28;2516;-73
2023/09/23 02:18:11;;;;;;;;;;;;;;;21.71;57.01;100241.72;5028823;28;2759;-72
2023/09/23 02:20:38;;;;;;;;;;;;;;;21.71;56.78;100241.00;5032871;28;2461;-72
2023/09/23 02:23:05;;;;;;;;;;;;;;;21.74;57.19;100236.78;5035003;28;2634;-72
2023/09/23 02:25:32;;;;;;;;;;;;;;;21.75;56.89;100246.88;5026661;28;2511;-73
2023/09/23 02:27:59;;;;;;;;;;;;;;;21.75;56.74;100241.84;5031285;28;2113;-73
2023/09/23 02:30:25;;;;;;;;;;;;;;;21.72;56.66;100233.84;5032202;28;6016;-73
2023/09/23 02:32:52;;;;;;;;;;;;;;;21.71;56.75;100235.94;5027632;28;2166;-73
2023/09/23 02:35:18;;;;;;;;;;;;;;;21.72;57.06;100246.09;5028769;28;2544;-73
2023/09/23 02:37:45;;;;;;;;;;;;;;;21.71;57.11;100253.25;5030479;28;2526;-72
2023/09/23 02:40:13;;;;;;;;;;;;;;;21.72;56.99;100251.84;5029965;28;2416;-72
2023/09/23 02:42:41;;;;;;;;;;;;;;;21.69;56.92;100256.09;5031534;28;2422;-73
2023/09/23 02:45:09;;;;;;;;;;;;;;;21.67;57.00;100250.25;5029677;28;2483;-72
2023/09/23 02:47:36;;;;;;;;;;;;;;;21.65;56.67;100261.72;5032093;28;2182;-73
2023/09/23 02:50:13;;;;;;;;;;;;;;;21.67;56.97;100258.16;5030441;28;2428;-72
2023/09/23 02:52:41;;;;;;;;;;;;;;;21.70;57.03;100262.59;5016417;28;1693;-73
2023/09/23 02:55:12;;;;;;;;;;;;;;;21.68;56.74;100257.47;5026369;28;2553;-73
2023/09/23 02:57:38;;;;;;;;;;;;;;;21.69;57.02;100267.63;5030132;28;1808;-72
2023/09/23 03:00:17;;;;;;;;;;;;;;;21.71;56.86;100282.06;5029898;28;6154;-72
2023/09/23 03:02:45;;;;;;;;;;;;;;;21.72;56.73;100277.78;5028215;28;2421;-72
2023/09/23 03:05:15;;;;;;;;;;;;;;;21.70;56.82;100277.72;5026026;28;2422;-72
2023/09/23 03:07:49;;;;;;;;;;;;;;;21.69;56.83;100284.91;5031137;28;2434;-72
2023/09/23 03:10:19;;;;;;;;;;;;;;;21.71;56.59;100287.81;5029809;28;2567;-72
2023/09/23 03:12:51;;;;;;;;;;;;;;;21.72;56.98;100294.34;5028986;28;2395;-72
2023/09/23 03:15:20;;;;;;;;;;;;;;;21.72;56.59;100294.34;5033307;28;2406;-72
2023/09/23 03:17:51;;;;;;;;;;;;;;;21.68;56.57;100306.47;5030951;28;2528;-72
2023/09/23 03:20:21;;;;;;;;;;;;;;;21.69;56.75;100316.59;5028637;28;2492;-72
2023/09/23 03:22:48;;;;;;;;;;;;;;;21.72;56.74;100305.88;5025752;28;2442;-72
2023/09/23 03:25:20;;;;;;;;;;;;;;;21.73;56.61;100310.22;5025924;28;2482;-72
2023/09/23 03:27:47;;;;;;;;;;;;;;;21.73;56.39;100307.34;5025457;28;2550;-72
2023/09/23 03:30:15;;;;;;;;;;;;;;;21.72;56.91;100306.59;5026454;28;6079;-72
2023/09/23 03:32:41;;;;;;;;;;;;;;;21.74;56.76;100309.56;5028259;28;2469;-72
2023/09/23 03:35:13;;;;;;;;;;;;;;;21.72;56.55;100312.38;5026062;28;2535;-72
2023/09/23 03:37:40;;;;;;;;;;;;;;;21.73;57.01;100325.34;5032066;28;2455;-72
2023/09/23 03:40:07;;;;;;;;;;;;;;;21.73;56.53;100324.63;5028100;28;2414;-72
2023/09/23 03:42:34;;;;;;;;;;;;;;;21.66;56.54;100320.06;5037298;28;2538;-73
2023/09/23 03:45:03;;;;;;;;;;;;;;;21.69;56.66;100322.34;5031908;28;2427;-72
2023/09/23 03:47:29;;;;;;;;;;;;;;;21.67;56.40;100328.06;5008410;28;2497;-72
2023/09/23 03:49:56;;;;;;;;;;;;;;;21.72;56.51;100323.16;5025765;28;2265;-72
2023/09/23 03:52:24;;;;;;;;;;;;;;;21.72;56.62;100323.88;5026927;28;2346;-72
2023/09/23 03:54:52;;;;;;;;;;;;;;;21.71;56.66;100333.94;5027644;28;2411;-72
2023/09/23 03:57:19;;;;;;;;;;;;;;;21.71;56.44;100342.56;5044616;28;2525;-72
2023/09/23 03:59:46;;;;;;;;;;;;;;;21.72;56.59;100344.06;5026639;28;2581;-72
2023/09/23 04:02:12;;;;;;;;;;;;;;;21.70;56.53;100351.91;5027181;28;7207;-72
2023/09/23 04:04:39;;;;;;;;;;;;;;;21.73;56.40;100354.16;5023745;28;2641;-72
2023/09/23 04:07:06;;;;;;;;;;;;;;;21.71;56.36;100356.97;5043805;28;2511;-72
2023/09/23 04:09:33;;;;;;;;;;;;;;;21.70;56.26;100355.53;5024604;28;2459;-72
2023/09/23 04:12:00;;;;;;;;;;;;;;;21.66;56.39;100358.25;5024032;28;2635;-72
2023/09/23 04:14:29;;;;;;;;;;;;;;;21.63;56.17;100358.88;5030394;28;2380;-72
2023/09/23 04:16:56;;;;;;;;;;;;;;;21.61;56.20;100353.78;5031024;28;2542;-72
2023/09/23 04:19:23;;;;;;;;;;;;;;;21.65;56.17;100359.69;5027013;28;2419;-71
2023/09/23 04:21:50;;;;;;;;;;;;;;;21.66;56.27;100355.38;5029479;28;2225;-72
2023/09/23 04:24:16;;;;;;;;;;;;;;;21.64;56.14;100372.59;5028426;28;2517;-72
2023/09/23 04:26:43;;;;;;;;;;;;;;;21.63;56.02;100368.25;5029250;28;2492;-72
2023/09/23 04:29:09;;;;;;;;;;;;;;;21.61;56.19;100376.09;5037107;28;2471;-72
2023/09/23 04:31:36;;;;;;;;;;;;;;;21.63;55.94;100379.78;5030362;28;6172;-72
2023/09/23 04:34:02;;;;;;;;;;;;;;;21.64;55.97;100377.63;5029901;28;2575;-72
2023/09/23 04:36:29;;;;;;;;;;;;;;;21.63;56.13;100379.78;5033675;28;2147;-72
2023/09/23 04:38:55;;;;;;;;;;;;;;;21.61;56.00;100379.72;5033317;28;2498;-72
2023/09/23 04:41:21;;;;;;;;;;;;;;;21.62;55.80;100389.81;5031546;28;2639;-73
2023/09/23 04:43:48;;;;;;;;;;;;;;;21.59;55.95;100394.03;5032205;28;2435;-72
2023/09/23 04:46:16;;;;;;;;;;;;;;;21.59;56.08;100390.44;5033909;28;2331;-72
2023/09/23 04:48:43;;;;;;;;;;;;;;;21.60;55.76;100404.19;5031914;28;2484;-73
2023/09/23 04:51:10;;;;;;;;;;;;;;;21.63;55.82;100405.72;5031414;28;2388;-72
2023/09/23 04:53:36;;;;;;;;;;;;;;;21.62;55.90;100404.22;5034380;28;2166;-72
2023/09/23 04:56:08;;;;;;;;;;;;;;;21.59;55.96;100414.22;5030200;28;2664;-72
2023/09/23 04:58:35;;;;;;;;;;;;;;;21.58;55.50;100415.63;5027209;28;2481;-72
2023/09/23 05:01:01;;;;;;;;;;;;;;;21.56;55.63;100421.31;5028668;28;6003;-72
2023/09/23 05:03:28;;;;;;;;;;;;;;;21.55;55.45;100419.81;5032413;28;2472;-72
2023/09/23 05:05:54;;;;;;;;;;;;;;;21.58;55.73;100421.38;5018284;28;2199;-72
2023/09/23 05:08:21;;;;;;;;;;;;;;;21.58;55.85;100424.28;5032735;28;2415;-72
2023/09/23 05:10:47;;;;;;;;;;;;;;;21.60;55.91;100433.00;5033217;28;2478;-72
2023/09/23 05:13:17;;;;;;;;;;;;;;;21.60;55.47;100438.00;5031781;28;2289;-72
2023/09/23 05:15:43;;;;;;;;;;;;;;;21.57;55.49;100431.44;5033021;28;2526;-72
2023/09/23 05:18:10;;;;;;;;;;;;;;;21.57;55.37;100440.06;5032289;28;2517;-72
2023/09/23 05:20:36;;;;;;;;;;;;;;;21.57;55.54;100445.84;5031227;28;2655;-71
2023/09/23 05:23:05;;;;;;;;;;;;;;;21.57;55.55;100454.47;5030184;28;2475;-71
2023/09/23 05:25:32;;;;;;;;;;;;;;;21.59;55.58;100454.53;5031226;28;2617;-72
2023/09/23 05:27:59;;;;;;;;;;;;;;;21.56;55.46;100455.88;5031846;28;2390;-72
2023/09/23 05:30:28;;;;;;;;;;;;;;;21.56;55.35;100455.16;5029282;28;6038;-72
2023/09/23 05:32:54;;;;;;;;;;;;;;;21.57;55.40;100460.22;5030070;28;2447;-72
2023/09/23 05:35:21;;;;;;;;;;;;;;;21.58;55.15;100467.50;5031511;28;2398;-72
2023/09/23 05:37:47;;;;;;;;;;;;;;;21.56;55.39;100470.28;5033773;28;2185;-72
2023/09/23 05:42:43;;;;;;;;;;;;;;;21.56;55.54;100483.97;5027849;28;2577;-72
2023/09/23 05:45:10;;;;;;;;;;;;;;;21.57;55.50;100491.94;5028886;28;2424;-72
2023/09/23 05:47:37;;;;;;;;;;;;;;;21.59;55.45;100494.88;5030415;28;2504;-72
2023/09/23 05:50:04;;;;;;;;;;;;;;;21.59;55.55;100494.88;5032420;28;2422;-72
2023/09/23 05:52:30;;;;;;;;;;;;;;;21.59;55.40;100494.88;5030152;28;2502;-72
2023/09/23 05:54:57;;;;;;;;;;;;;;;21.56;55.39;100495.50;5027869;28;2970;-72
2023/09/23 05:57:24;;;;;;;;;;;;;;;21.56;55.30;100504.13;5028653;28;2465;-72
2023/09/23 05:59:51;;;;;;;;;;;;;;;21.57;55.38;100514.97;5025350;28;2505;-72
2023/09/23 06:02:17;;;;;;;;;;;;;;;21.54;55.43;100510.56;5023263;28;6105;-72
2023/09/23 06:04:43;;;;;;;;;;;;;;;21.56;55.66;100504.88;5027837;28;2498;-72
2023/09/23 06:07:10;;;;;;;;;;;;;;;21.60;55.36;100512.91;5027754;28;2450;-72
2023/09/23 06:09:36;;;;;;;;;;;;;;;21.61;55.21;100514.41;5028759;28;2414;-72
2023/09/23 06:12:03;;;;;;;;;;;;;;;21.58;55.40;100530.88;5030094;28;2619;-73
2023/09/23 06:14:30;;;;;;;;;;;;;;;21.30;55.72;100524.75;5028987;28;2474;-71
2023/09/23 06:16:56;;;;;;;;;;;;;;;21.16;56.07;100524.25;5030216;28;2394;-76
2023/09/23 06:19:23;;;;;;;;;;;;;;;21.07;56.19;100518.19;5030921;28;2616;-68
2023/09/23 06:21:51;;;;;;;;;;;;;;;21.07;56.49;100534.69;5029609;28;2414;-72
2023/09/23 06:24:17;;;;;;;;;;;;;;;21.09;56.28;100540.53;5027115;28;2458;-71
2023/09/23 06:26:43;;;;;;;;;;;;;;;21.15;56.38;100540.06;5031238;28;2329;-71
2023/09/23 06:29:14;;;;;;;;;;;;;;;21.00;55.95;100547.38;5029683;28;2359;-70
2023/09/23 06:31:40;;;;;;;;;;;;;;;20.89;56.57;100549.88;5028831;28;6340;-70
2023/09/23 06:34:07;;;;;;;;;;;;;;;20.83;56.25;100543.88;5027910;28;2559;-71
2023/09/23 06:36:33;;;;;;;;;;;;;;;20.82;56.08;100548.16;5029361;28;2408;-71
2023/09/23 06:38:59;;;;;;;;;;;;;;;20.84;55.93;100545.34;5028479;28;2573;-71
2023/09/23 06:41:26;;;;;;;;;;;;;;;20.90;56.23;100554.22;5029160;28;2576;-71
2023/09/23 06:43:52;;;;;;;;;;;;;;;20.77;55.91;100560.16;5027212;28;2966;-69
2023/09/23 06:46:19;;;;;;;;;;;;;;;20.83;55.89;100566.16;5026946;28;2456;-68
2023/09/23 06:48:45;;;;;;;;;;;;;;;20.70;55.62;100562.78;5028323;28;2470;-68
2023/09/23 06:51:12;;;;;;;;;;;;;;;20.38;55.83;100572.94;5027139;28;2664;-68
2023/09/23 06:53:39;;;;;;;;;;;;;;;20.44;56.16;100567.44;5027956;28;2518;-70
2023/09/23 06:56:06;;;;;;;;;;;;;;;20.32;55.10;100573.44;5030519;28;2226;-70
2023/09/23 06:58:32;;;;;;;;;;;;;;;20.15;55.97;100583.50;5028002;28;2689;-69
2023/09/23 07:00:59;;;;;;;;;;;;;;;20.37;55.36;100600.97;5030463;28;6381;-69
2023/09/23 07:03:26;;;;;;;;;;;;;;;20.24;55.35;100599.69;5028949;28;2580;-69
2023/09/23 07:05:53;;;;;;;;;;;;;;;20.32;55.43;100593.56;5028941;28;2352;-69
2023/09/23 07:08:19;;;;;;;;;;;;;;;20.25;55.17;100601.19;5029256;28;2217;-69
2023/09/23 07:10:46;;;;;;;;;;;;;;;20.12;55.38;100596.31;5029032;28;2470;-69
2023/09/23 07:13:12;;;;;;;;;;;;;;;20.08;54.78;100599.72;5028674;28;2461;-73
2023/09/23 07:15:40;;;;;;;;;;;;;;;20.29;54.47;100606.34;5027282;28;2622;-69
2023/09/23 07:18:06;;;;;;;;;;;;;;;19.91;54.92;100603.31;5026232;28;2399;-68
2023/09/23 07:20:33;;;;;;;;;;;;;;;20.00;54.65;100601.53;5028145;28;2521;-68
2023/09/23 07:23:00;;;;;;;;;;;;;;;19.98;54.37;100602.19;5027488;28;2528;-68
2023/09/23 07:25:26;;;;;;;;;;;;;;;19.99;54.48;100609.41;5027908;28;2651;-68
2023/09/23 07:27:54;;;;;;;;;;;;;;;19.71;53.84;100616.78;5028852;28;2399;-68
2023/09/23 07:30:20;;;;;;;;;;;;;;;19.88;54.58;100616.09;5025843;28;6109;-68
2023/09/23 07:32:46;;;;;;;;;;;;;;;20.00;54.12;100621.66;5030599;28;2553;-69
2023/09/23 07:35:13;;;;;;;;;;;;;;;20.16;53.17;100627.34;5029938;28;2498;-70
2023/09/23 07:37:40;;;;;;;;;;;;;;;20.11;53.24;100625.69;5027141;28;2586;-71
2023/09/23 07:40:06;;;;;;;;;;;;;;;20.31;53.54;100643.84;5026882;28;2557;-67
2023/09/23 07:42:33;;;;;;;;;;;;;;;20.59;52.96;100634.94;5027645;28;2564;-67
2023/09/23 07:44:59;;;;;;;;;;;;;;;20.74;52.69;100642.78;5026875;28;2710;-66
2023/09/23 07:47:26;;;;;;;;;;;;;;;20.88;52.88;100643.38;5026218;28;2454;-67
2023/09/23 07:49:53;;;;;;;;;;;;;;;20.98;52.82;100653.81;5028627;28;2472;-67
2023/09/23 07:52:19;;;;;;;;;;;;;;;21.03;52.95;100655.47;5029113;28;2591;-67
2023/09/23 07:54:46;;;;;;;;;;;;;;;21.08;52.91;100651.34;5027093;28;2434;-67
2023/09/23 07:57:12;;;;;;;;;;;;;;;21.12;53.39;100657.28;5027192;28;2567;-67
2023/09/23 07:59:39;;;;;;;;;;;;;;;21.14;53.44;100660.22;5027732;28;2529;-67
2023/09/23 08:02:05;;;;;;;;;;;;;;;21.19;53.32;100661.88;5025061;28;6489;-67
2023/09/23 08:04:32;;;;;;;;;;;;;;;21.21;53.38;100664.84;5026771;28;2454;-67
2023/09/23 08:06:58;;;;;;;;;;;;;;;21.22;53.85;100677.09;5027413;28;2657;-67
2023/09/23 08:09:24;;;;;;;;;;;;;;;21.26;53.80;100678.00;5042351;28;2414;-67
2023/09/23 08:11:51;;;;;;;;;;;;;;;21.27;53.91;100673.69;5028423;28;2569;-67
2023/09/23 08:14:17;;;;;;;;;;;;;;;21.27;53.85;100667.94;5026006;28;2406;-67
2023/09/23 08:16:44;;;;;;;;;;;;;;;21.28;54.09;100674.44;5026249;28;2633;-67
2023/09/23 08:19:11;;;;;;;;;;;;;;;21.31;54.26;100667.38;5025102;28;2697;-67
2023/09/23 08:21:38;;;;;;;;;;;;;;;21.32;54.08;100678.22;5026873;28;2898;-67
2023/09/23 08:24:04;;;;;;;;;;;;;;;21.34;54.21;100672.53;5028674;28;2654;-66
2023/09/23 08:26:30;;;;;;;;;;;;;;;21.36;54.18;100679.78;5027173;28;2482;-67
2023/09/23 08:28:57;;;;;;;;;;;;;;;21.38;54.17;100688.53;5026722;28;2504;-67
2023/09/23 08:31:24;;;;;;;;;;;;;;;21.39;54.27;100684.97;5026745;28;6402;-67
2023/09/23 08:33:50;;;;;;;;;;;;;;;21.42;54.28;100694.47;5025377;28;2487;-67
2023/09/23 08:36:17;;;;;;;;;;;;;;;21.40;54.18;100692.25;5031415;28;2228;-67
2023/09/23 08:38:43;;;;;;;;;;;;;;;21.39;54.25;100707.28;5028279;28;2167;-67
2023/09/23 08:41:10;;;;;;;;;;;;;;;21.41;54.44;100713.16;5029325;28;2398;-67
2023/09/23 08:43:37;;;;;;;;;;;;;;;21.46;54.34;100711.91;5027326;28;2435;-67
2023/09/23 08:46:07;;;;;;;;;;;;;;;21.48;54.29;100721.34;5029687;28;2466;-67
2023/09/23 08:48:33;;;;;;;;;;;;;;;21.48;54.09;100714.84;5024637;28;2452;-67
2023/09/23 08:51:01;;;;;;;;;;;;;;;21.49;54.39;100728.63;5025095;28;2658;-67
2023/09/23 08:53:31;;;;;;;;;;;;;;;21.51;54.10;100725.09;5029002;28;2426;-67
2023/09/23 08:55:57;;;;;;;;;;;;;;;21.52;54.36;100726.56;5028724;28;2404;-67
2023/09/23 08:58:24;;;;;;;;;;;;;;;21.54;54.26;100733.13;5023373;28;2461;-67
2023/09/23 09:00:52;;;;;;;;;;;;;;;21.56;54.41;100749.75;5029111;28;6385;-67
2023/09/23 09:03:19;;;;;;;;;;;;;;;21.57;54.08;100750.50;5028603;28;2112;-67
2023/09/23 09:05:46;;;;;;;;;;;;;;;21.57;54.32;100759.88;5028942;28;2659;-67
2023/09/23 09:08:14;;;;;;;;;;;;;;;21.58;54.26;100752.72;5024372;28;2517;-67
2023/09/23 09:10:41;;;;;;;;;;;;;;;21.59;54.12;100765.72;5024941;28;2488;-67
2023/09/23 09:13:07;;;;;;;;;;;;;;;21.60;54.06;100767.22;5028072;28;2498;-67
2023/09/23 09:15:35;;;;;;;;;;;;;;;21.59;54.11;100765.72;5031649;28;2674;-67
2023/09/23 09:18:04;;;;;;;;;;;;;;;21.62;54.24;100781.69;5031414;28;2560;-67
2023/09/23 09:20:31;;;;;;;;;;;;;;;21.62;54.27;100787.44;5032412;28;2739;-67
2023/09/23 09:22:57;;;;;;;;;;;;;;;21.63;54.21;100788.94;5032475;28;2644;-67
2023/09/23 09:25:24;;;;;;;;;;;;;;;21.67;54.18;100789.09;5034464;28;2694;-67
2023/09/23 09:27:52;;;;;;;;;;;;;;;21.67;54.33;100797.75;5028218;28;2712;-67
2023/09/23 09:30:19;;;;;;;;;;;;;;;21.67;54.06;100789.09;5030667;28;6725;-67
2023/09/23 09:32:46;;;;;;;;;;;;;;;21.67;53.95;100789.09;5034601;28;1663;-67
2023/09/23 09:35:17;;;;;;;;;;;;;;;21.66;54.15;100787.63;5032389;28;2611;-67
2023/09/23 09:37:44;;;;;;;;;;;;;;;21.65;54.04;100797.69;5030623;28;2698;-67
2023/09/23 09:40:15;;;;;;;;;;;;;;;21.67;53.96;100806.41;5031658;28;2576;-67
2023/09/23 09:42:42;;;;;;;;;;;;;;;21.66;54.08;100810.66;5029050;28;2564;-67
2023/09/23 09:45:09;;;;;;;;;;;;;;;21.67;53.83;100820.81;5028937;28;2746;-66
2023/09/23 09:47:38;;;;;;;;;;;;;;;21.66;53.98;100822.19;5028495;28;2863;-67
2023/09/23 09:50:05;;;;;;;;;;;;;;;21.67;54.01;100809.28;5030627;28;2676;-67
2023/09/23 09:52:31;;;;;;;;;;;;;;;21.69;53.85;100814.38;5036161;28;2566;-67
2023/09/23 09:54:58;;;;;;;;;;;;;;;21.70;53.74;100818.75;5034473;28;1798;-67
2023/09/23 09:57:26;;;;;;;;;;;;;;;21.70;53.78;100821.63;5031444;28;2615;-68
2023/09/23 09:59:57;;;;;;;;;;;;;;;21.69;53.76;100829.53;5023723;28;2718;-73
2023/09/23 10:02:23;;;;;;;;;;;;;;;21.77;54.36;100828.38;5023631;28;6177;-68
2023/09/23 13:31:53;;;;;;;;;;;;;;;22.24;53.68;100960.78;4825148;29;3324;-75
2023/09/23 13:34:20;;;;;;;;;;;;;;;22.25;53.69;100964.41;4829454;29;3359;-74
2023/09/23 13:36:46;;;;;;;;;;;;;;;22.25;54.07;100975.94;4853588;29;2038;-75
2023/09/23 13:39:12;;;;;;;;;;;;;;;22.27;54.18;100978.91;4851727;29;2050;-74
2023/09/23 13:41:39;;;;;;;;;;;;;;;22.31;53.81;100973.28;4850738;29;2056;-74
2023/09/23 13:44:07;;;;;;;;;;;;;;;22.30;54.09;100971.81;4857765;29;1906;-78
2023/09/23 13:46:34;;;;;;;;;;;;;;;22.29;54.37;100982.63;4850518;29;1951;-74
2023/09/23 13:49:00;;;;;;;;;;;;;;;22.28;54.79;100977.50;4852696;29;1298;-74
2023/09/23 13:51:27;;;;;;;;;;;;;;;22.30;54.73;100974.69;4852237;29;2002;-74
2023/09/23 13:53:53;;;;;;;;;;;;;;;22.27;54.78;100978.91;4854183;29;2376;-74
2023/09/23 13:56:19;;;;;;;;;;;;;;;22.27;55.05;100978.91;4854688;29;1855;-74
2023/09/23 13:58:46;;;;;;;;;;;;;;;22.29;54.91;100987.66;4857471;29;1928;-73
2023/09/23 14:01:16;;;;;;;;;;;;;;;22.28;55.14;100998.44;4852869;29;1856;-74
2023/09/23 14:03:42;;;;;;;;;;;;;;;22.28;54.96;100997.69;4857722;29;1213;-74
2023/09/23 14:06:09;;;;;;;;;;;;;;;22.28;54.95;101003.47;4857052;29;1920;-74
2023/09/23 14:08:35;;;;;;;;;;;;;;;22.28;55.35;101009.22;4853513;29;1239;-74
2023/09/23 14:11:04;;;;;;;;;;;;;;;22.27;55.38;101004.88;4851557;29;1473;-74
2023/09/23 14:13:31;;;;;;;;;;;;;;;22.28;55.35;101015.72;4851034;29;1678;-74
2023/09/23 14:15:57;;;;;;;;;;;;;;;22.29;55.14;101025.16;4855655;29;1899;-74
2023/09/23 14:18:24;;;;;;;;;;;;;;;22.28;55.50;101020.78;4852191;29;2366;-74
2023/09/23 14:20:51;;;;;;;;;;;;;;;22.28;55.37;101026.53;4855981;29;1420;-73
2023/09/23 14:23:18;;;;;;;;;;;;;;;22.27;55.47;101027.94;4853505;29;2046;-74
2023/09/23 14:25:44;;;;;;;;;;;;;;;22.29;55.61;101030.91;4856671;29;1980;-74
2023/09/23 14:28:11;;;;;;;;;;;;;;;22.28;55.36;101030.16;4868401;29;1847;-74
2023/09/23 14:30:37;;;;;;;;;;;;;;;22.27;55.40;101042.38;4869602;29;1617;-74
2023/09/23 14:33:05;;;;;;;;;;;;;;;22.28;55.72;101040.97;4859781;29;1934;-74
2023/09/23 14:35:32;;;;;;;;;;;;;;;22.27;55.50;101042.38;4863518;29;1397;-73
2023/09/23 14:37:58;;;;;;;;;;;;;;;22.28;55.45;101049.63;4855190;29;1402;-73
2023/09/23 14:40:27;;;;;;;;;;;;;;;22.28;55.38;101058.28;4860555;29;1862;-73
2023/09/23 14:42:55;;;;;;;;;;;;;;;22.29;55.47;101056.88;4872239;29;1536;-73
2023/09/23 14:45:22;;;;;;;;;;;;;;;22.26;55.86;101058.91;4864509;29;1829;-73
2023/09/23 14:47:49;;;;;;;;;;;;;;;22.23;55.92;101050.84;4863975;29;2053;-73
2023/09/23 14:50:15;;;;;;;;;;;;;;;22.27;55.57;101054.66;4863917;29;1712;-73
2023/09/23 14:52:44;;;;;;;;;;;;;;;22.26;55.63;101061.81;4860267;29;1304;-73
2023/09/23 14:55:10;;;;;;;;;;;;;;;22.27;55.39;101059.69;4862453;29;1970;-73
2023/09/23 14:57:37;;;;;;;;;;;;;;;22.27;55.60;101069.06;4867787;29;1485;-73
2023/09/23 15:00:05;;;;;;;;;;;;;;;22.27;55.59;101065.44;4868046;29;1419;-73
2023/09/23 15:02:31;;;;;;;;;;;;;;;22.26;55.80;101070.47;4867902;29;1964;-73
2023/09/23 15:04:58;;;;;;;;;;;;;;;22.27;55.75;101065.44;4866675;29;1429;-73
2023/09/23 15:07:25;;;;;;;;;;;;;;;22.27;55.56;101071.22;4846646;29;2035;-73
2023/09/23 15:09:51;;;;;;;;;;;;;;;22.27;55.90;101074.09;4860859;29;1259;-72
2023/09/23 15:12:18;;;;;;;;;;;;;;;22.27;55.63;101074.09;4858838;29;1871;-73
2023/09/23 15:14:45;;;;;;;;;;;;;;;22.26;55.83;101082.00;4860417;29;1322;-73
2023/09/23 15:17:13;;;;;;;;;;;;;;;22.27;55.90;101077.72;4853906;29;2015;-74
2023/09/23 15:19:39;;;;;;;;;;;;;;;22.10;55.69;101081.28;4865204;29;1970;-75
2023/09/23 15:22:06;;;;;;;;;;;;;;;21.82;53.66;101086.56;4864440;29;1993;-75
2023/09/23 15:24:33;;;;;;;;;;;;;;;21.61;51.73;101079.91;4867616;29;1824;-75
2023/09/23 15:26:59;;;;;;;;;;;;;;;21.62;51.21;101095.78;4865808;29;1970;-74
2023/09/23 15:29:27;;;;;;;;;;;;;;;21.77;50.47;101105.81;4865908;29;2052;-73
2023/09/23 15:31:53;;;;;;;;;;;;;;;21.84;51.08;101101.81;4866141;29;2236;-73
2023/09/23 15:34:20;;;;;;;;;;;;;;;21.99;50.57;101114.72;4866681;29;2004;-73
2023/09/23 15:36:46;;;;;;;;;;;;;;;22.05;50.00;101117.84;4868045;29;1875;-73
2023/09/23 15:39:13;;;;;;;;;;;;;;;22.10;50.36;101119.50;4846195;29;2021;-73
2023/09/23 15:41:39;;;;;;;;;;;;;;;22.13;50.50;101114.59;4872580;29;1816;-73
2023/09/23 15:44:05;;;;;;;;;;;;;;;22.14;51.11;101124.72;4869853;29;1926;-75
2023/09/23 15:46:32;;;;;;;;;;;;;;;22.17;52.04;101115.53;4867167;29;2357;-74
2023/09/23 15:48:58;;;;;;;;;;;;;;;22.22;53.28;101115.69;4870864;29;1854;-73
2023/09/23 15:51:25;;;;;;;;;;;;;;;22.08;53.30;101113.69;4867058;29;1965;-72
2023/09/23 15:53:51;;;;;;;;;;;;;;;21.99;52.68;101116.84;4866957;29;2021;-72
2023/09/23 15:56:18;;;;;;;;;;;;;;;22.06;52.00;101122.25;4870313;29;2255;-72
2023/09/23 15:58:44;;;;;;;;;;;;;;;22.10;52.41;101116.63;4874869;29;1836;-72
2023/09/23 16:01:11;;;;;;;;;;;;;;;22.14;53.34;101122.56;4870135;29;1906;-74
2023/09/23 16:03:38;;;;;;;;;;;;;;;22.21;53.20;101140.16;4869130;29;2295;-74
2023/09/23 16:06:04;;;;;;;;;;;;;;;22.23;53.10;101137.38;4869332;29;1942;-74
2023/09/23 16:08:31;;;;;;;;;;;;;;;22.22;53.62;101153.97;4870548;29;1911;-74
2023/09/23 16:10:57;;;;;;;;;;;;;;;22.22;53.57;101150.31;4871334;29;1819;-74
2023/09/23 16:13:24;;;;;;;;;;;;;;;22.24;53.39;101147.50;4868386;29;1863;-74
2023/09/23 16:15:50;;;;;;;;;;;;;;;22.23;53.56;101146.03;4868911;29;1912;-74